Time;durP1;ratioP1;P1;durP2;ratioP2;P2;SDS_P1;SDS_P2;PMS_P1;PMS_P2;Temp;Humidity;BMP_temperature;BMP_pressure;BME280_temperature;BME280_humidity;BME280_pressure;Samples;Min_cycle;Max_cycle;Signal;HPM_P1;HPM_P2
2023/01/22 00:01:16;;;;;;;50.60;45.80;;;;;;;-0.28;96.63;98378.77;108858;1297;22876;-79
2023/01/22 00:03:45;;;;;;;48.60;44.00;;;;;;;-0.29;96.55;98383.52;108802;1297;22232;-81
2023/01/22 00:06:14;;;;;;;46.30;41.80;;;;;;;-0.27;96.68;98381.63;108850;1297;22293;-80
2023/01/22 00:08:42;;;;;;;49.70;45.10;;;;;;;-0.23;96.59;98388.90;108728;1297;22380;-80
2023/01/22 00:11:11;;;;;;;49.60;44.80;;;;;;;-0.21;96.58;98388.67;108847;1297;22315;-80
2023/01/22 00:13:39;;;;;;;49.40;44.70;;;;;;;-0.19;96.72;98389.31;108829;1297;22333;-80
2023/01/22 00:16:11;;;;;;;50.60;46.00;;;;;;;-0.18;96.75;98391.98;108869;1282;22195;-81
2023/01/22 00:18:39;;;;;;;48.30;43.80;;;;;;;-0.22;96.73;98384.52;108819;1297;23538;-80
2023/01/22 00:21:07;;;;;;;47.50;43.10;;;;;;;-0.24;96.56;98387.16;108850;1297;22237;-80
2023/01/22 00:23:35;;;;;;;46.00;41.80;;;;;;;-0.23;96.56;98388.62;108849;1297;22184;-80
2023/01/22 00:26:12;;;;;;;47.10;42.30;;;;;;;-0.22;96.51;98390.92;108843;1297;22229;-78
2023/01/22 00:28:43;;;;;;;48.80;44.30;;;;;;;-0.26;96.54;98388.84;108832;1297;22303;-79
2023/01/22 00:31:13;;;;;;;49.50;44.80;;;;;;;-0.23;96.64;98400.63;108833;1297;22992;-79
2023/01/22 00:33:42;;;;;;;47.70;43.20;;;;;;;-0.25;96.64;98405.02;108820;1297;22115;-80
2023/01/22 00:36:16;;;;;;;48.90;44.40;;;;;;;-0.26;96.69;98404.10;108504;1297;22209;-81
2023/01/22 00:38:45;;;;;;;47.20;42.90;;;;;;;-0.25;96.49;98407.15;108855;1297;22186;-81
2023/01/22 00:41:15;;;;;;;44.90;40.80;;;;;;;-0.24;96.39;98407.36;108648;1297;22167;-80
2023/01/22 00:43:43;;;;;;;49.20;44.60;;;;;;;-0.23;96.51;98403.77;108841;1297;22180;-80
2023/01/22 00:46:14;;;;;;;50.40;45.90;;;;;;;-0.24;96.67;98408.09;108775;1297;22180;-80
2023/01/22 00:48:44;;;;;;;51.70;46.80;;;;;;;-0.24;96.82;98410.41;108853;1297;22729;-80
2023/01/22 00:51:13;;;;;;;47.40;43.00;;;;;;;-0.27;96.54;98404.33;108803;1297;22328;-80
2023/01/22 00:53:42;;;;;;;47.20;42.80;;;;;;;-0.28;96.58;98406.95;108662;1297;22120;-80
2023/01/22 00:56:12;;;;;;;42.80;38.90;;;;;;;-0.28;96.60;98405.10;108864;1297;22318;-81
2023/01/22 00:58:41;;;;;;;44.70;40.80;;;;;;;-0.25;96.45;98409.32;108668;1297;22237;-80
2023/01/22 01:01:09;;;;;;;40.70;37.00;;;;;;;-0.26;96.45;98414.54;108643;1297;22213;-80
2023/01/22 01:03:37;;;;;;;41.10;37.40;;;;;;;-0.27;96.45;98419.06;108790;1297;22173;-81
2023/01/22 01:06:18;;;;;;;41.90;38.20;;;;;;;-0.28;96.55;98418.43;108839;1297;22377;-81
2023/01/22 01:08:48;;;;;;;42.80;38.80;;;;;;;-0.29;96.66;98419.73;108616;1297;22223;-80
2023/01/22 01:11:24;;;;;;;41.10;37.40;;;;;;;-0.27;96.67;98418.66;108841;1297;22248;-80
2023/01/22 01:13:52;;;;;;;40.10;36.40;;;;;;;-0.23;96.72;98416.28;108836;1297;22325;-80
2023/01/22 01:16:25;;;;;;;43.00;39.00;;;;;;;-0.18;96.69;98403.55;108846;1297;22342;-82
2023/01/22 01:19:00;;;;;;;44.70;40.60;;;;;;;-0.17;96.44;98396.47;108799;1297;22417;-81
2023/01/22 01:21:29;;;;;;;44.60;40.70;;;;;;;-0.21;96.55;98398.77;108812;1297;22232;-81
2023/01/22 01:23:59;;;;;;;44.10;40.10;;;;;;;-0.24;96.47;98405.81;108846;1297;22428;-81
2023/01/22 01:26:27;;;;;;;42.50;38.70;;;;;;;-0.25;96.67;98409.80;108792;1297;23107;-80
2023/01/22 01:28:55;;;;;;;39.90;36.20;;;;;;;-0.23;96.62;98411.02;108802;1297;22236;-81
2023/01/22 01:31:24;;;;;;;39.10;35.60;;;;;;;-0.21;96.53;98412.02;108839;1297;22229;-80
2023/01/22 01:33:57;;;;;;;36.80;33.60;;;;;;;-0.17;96.53;98409.79;108825;1297;22312;-80
2023/01/22 01:36:25;;;;;;;33.90;30.70;;;;;;;-0.15;96.45;98407.85;108690;1297;22285;-81
2023/01/22 01:39:13;;;;;;;34.10;31.00;;;;;;;-0.17;96.27;98406.61;108842;1297;22190;-81
2023/01/22 01:41:41;;;;;;;35.00;32.00;;;;;;;-0.23;96.38;98407.66;108803;1297;22227;-81
2023/01/22 01:44:18;;;;;;;32.80;30.00;;;;;;;-0.25;96.57;98422.19;108850;1297;22266;-81
2023/01/22 01:46:53;;;;;;;28.30;25.80;;;;;;;-0.26;96.64;98425.67;108806;1297;22247;-82
2023/01/22 01:49:33;;;;;;;28.80;26.30;;;;;;;-0.25;96.38;98425.85;108811;1297;22270;-81
2023/01/22 01:52:09;;;;;;;31.70;29.00;;;;;;;-0.24;96.47;98427.72;108872;1297;22961;-81
2023/01/22 01:54:41;;;;;;;34.20;31.10;;;;;;;-0.24;96.54;98437.92;108866;1297;22133;-81
2023/01/22 01:57:17;;;;;;;33.40;30.50;;;;;;;-0.24;96.37;98440.98;108865;1297;22255;-81
2023/01/22 01:59:47;;;;;;;31.90;28.60;;;;;;;-0.29;96.39;98446.79;108822;1297;22212;-81
2023/01/22 02:02:16;;;;;;;31.70;28.80;;;;;;;-0.31;96.21;98449.01;108623;1297;22223;-81
2023/01/22 02:04:44;;;;;;;29.90;27.20;;;;;;;-0.32;96.29;98451.96;108850;1297;22520;-81
2023/01/22 02:07:12;;;;;;;30.40;27.70;;;;;;;-0.32;96.23;98454.39;108838;1297;22220;-81
2023/01/22 02:09:39;;;;;;;32.80;30.00;;;;;;;-0.34;96.24;98452.95;108845;1297;22203;-81
2023/01/22 02:12:08;;;;;;;32.00;29.10;;;;;;;-0.37;96.15;98452.88;108834;1297;22188;-81
2023/01/22 02:14:41;;;;;;;31.00;28.10;;;;;;;-0.42;96.22;98457.07;108854;1297;22896;-81
2023/01/22 02:17:17;;;;;;;30.00;27.30;;;;;;;-0.45;96.16;98450.78;108828;1297;22120;-81
2023/01/22 02:19:45;;;;;;;28.40;25.70;;;;;;;-0.45;96.23;98454.84;108815;1295;22237;-81
2023/01/22 02:22:19;;;;;;;31.30;28.50;;;;;;;-0.44;96.14;98455.41;108853;1297;22230;-81
2023/01/22 02:24:47;;;;;;;29.40;26.80;;;;;;;-0.41;96.27;98451.61;108843;1297;23031;-81
2023/01/22 02:27:16;;;;;;;29.60;26.80;;;;;;;-0.45;96.04;98447.42;108840;1297;22222;-81
2023/01/22 02:29:45;;;;;;;28.10;25.50;;;;;;;-0.48;96.22;98447.70;108806;1297;22355;-81
2023/01/22 02:32:13;;;;;;;25.20;22.90;;;;;;;-0.53;96.29;98442.47;108837;1297;22442;-81
2023/01/22 02:34:41;;;;;;;22.30;20.30;;;;;;;-0.53;96.13;98446.73;108812;1297;22907;-81
2023/01/22 02:37:09;;;;;;;22.60;20.50;;;;;;;-0.53;95.96;98445.58;108832;1297;22120;-82
2023/01/22 02:39:37;;;;;;;21.10;19.10;;;;;;;-0.51;96.03;98444.79;108844;1297;22308;-82
2023/01/22 02:42:07;;;;;;;19.50;17.70;;;;;;;-0.52;95.89;98441.61;108830;1297;22979;-82
2023/01/22 02:44:35;;;;;;;20.30;18.50;;;;;;;-0.55;95.84;98442.53;108663;1297;22222;-82
2023/01/22 02:47:04;;;;;;;20.70;18.70;;;;;;;-0.60;95.79;98441.21;108840;1297;22141;-82
2023/01/22 02:49:32;;;;;;;18.20;16.50;;;;;;;-0.64;95.74;98434.52;108797;1297;22894;-82
2023/01/22 02:52:00;;;;;;;18.60;16.80;;;;;;;-0.61;95.92;98433.66;108711;1298;22255;-82
2023/01/22 02:54:29;;;;;;;21.10;19.20;;;;;;;-0.58;95.74;98433.67;108661;1288;22302;-82
2023/01/22 02:56:57;;;;;;;22.00;20.10;;;;;;;-0.59;95.75;98441.55;108658;1298;22264;-81
2023/01/22 02:59:25;;;;;;;21.80;19.90;;;;;;;-0.59;95.50;98439.75;108662;1298;22242;-81
2023/01/22 03:01:55;;;;;;;20.00;18.20;;;;;;;-0.65;95.69;98438.23;108627;1298;22184;-81
2023/01/22 03:04:26;;;;;;;22.30;20.40;;;;;;;-0.65;95.67;98441.62;108651;1298;22772;-81
2023/01/22 03:06:54;;;;;;;20.40;18.40;;;;;;;-0.61;95.79;98439.27;108648;1298;22873;-81
2023/01/22 03:09:23;;;;;;;20.40;18.60;;;;;;;-0.59;95.69;98443.71;108622;1298;22169;-81
2023/01/22 03:11:51;;;;;;;21.10;19.20;;;;;;;-0.57;95.80;98448.36;108524;1298;22343;-81
2023/01/22 03:22:47;;;;;;;20.50;18.60;;;;;;;-0.62;95.57;98447.90;108645;1296;22244;-81
2023/01/22 03:25:15;;;;;;;20.00;18.10;;;;;;;-0.59;95.51;98444.96;108672;1298;22242;-81
2023/01/22 03:28:07;;;;;;;19.20;17.30;;;;;;;-0.59;95.36;98445.70;108639;1299;22205;-80
2023/01/22 03:30:33;;;;;;;22.00;20.10;;;;;;;-0.64;95.52;98451.18;108698;1298;22242;-80
2023/01/22 03:33:01;;;;;;;23.00;20.90;;;;;;;-0.65;95.91;98453.91;108720;1298;22170;-80
2023/01/22 03:35:29;;;;;;;23.10;21.00;;;;;;;-0.62;95.95;98452.91;108544;1298;22498;-81
2023/01/22 03:38:16;;;;;;;20.50;18.60;;;;;;;-0.62;95.59;98453.03;108658;1298;22231;-81
2023/01/22 03:40:45;;;;;;;20.30;18.30;;;;;;;-0.64;95.34;98454.88;108665;1298;22967;-81
2023/01/22 03:43:13;;;;;;;20.20;18.30;;;;;;;-0.64;95.36;98458.75;108550;1298;22991;-82
2023/01/22 03:45:42;;;;;;;19.40;17.60;;;;;;;-0.61;95.51;98457.02;108677;1298;22245;-81
2023/01/22 03:48:12;;;;;;;20.00;18.20;;;;;;;-0.58;95.49;98459.98;108677;1298;22995;-81
2023/01/22 03:50:40;;;;;;;22.60;20.40;;;;;;;-0.56;95.55;98458.95;108661;1297;22294;-82
2023/01/22 03:53:08;;;;;;;22.50;20.40;;;;;;;-0.51;95.97;98464.33;108839;1297;22208;-81
2023/01/22 03:55:36;;;;;;;22.00;19.90;;;;;;;-0.49;95.96;98466.73;108800;1297;22255;-81
2023/01/22 03:58:04;;;;;;;23.50;21.00;;;;;;;-0.47;95.95;98466.20;108778;1297;22229;-82
2023/01/22 04:00:34;;;;;;;25.50;23.10;;;;;;;-0.42;95.96;98465.02;108792;1297;22925;-81
2023/01/22 04:03:03;;;;;;;23.60;21.40;;;;;;;-0.40;95.60;98462.48;108802;1297;22326;-81
2023/01/22 04:05:32;;;;;;;30.00;27.30;;;;;;;-0.39;95.56;98457.00;108774;1297;22306;-81
2023/01/22 04:08:00;;;;;;;33.30;30.40;;;;;;;-0.37;95.49;98456.27;108802;1297;22213;-81
2023/01/22 04:10:30;;;;;;;24.10;22.00;;;;;;;-0.39;95.40;98450.16;108801;1297;22297;-81
2023/01/22 04:13:01;;;;;;;25.00;22.90;;;;;;;-0.43;95.47;98451.82;108793;1297;22238;-81
2023/01/22 04:15:29;;;;;;;23.20;21.00;;;;;;;-0.47;95.72;98452.83;108821;1297;22958;-81
2023/01/22 04:17:59;;;;;;;21.10;19.20;;;;;;;-0.47;95.72;98463.94;108787;1297;22289;-82
2023/01/22 04:20:39;;;;;;;21.10;19.10;;;;;;;-0.45;95.53;98466.13;108692;1297;22234;-81
2023/01/22 04:23:20;;;;;;;21.20;19.40;;;;;;;-0.43;95.58;98469.14;108666;1297;22181;-81
2023/01/22 04:25:49;;;;;;;23.50;21.40;;;;;;;-0.43;95.62;98468.52;108773;1297;22326;-82
2023/01/22 04:28:17;;;;;;;25.70;23.50;;;;;;;-0.46;95.41;98468.54;108842;1297;22247;-82
2023/01/22 04:30:51;;;;;;;24.20;22.10;;;;;;;-0.49;95.59;98465.14;108777;1297;23504;-82
2023/01/22 04:33:42;;;;;;;26.00;23.70;;;;;;;-0.54;95.50;98464.84;108832;1297;22253;-82
2023/01/22 04:36:16;;;;;;;25.90;23.70;;;;;;;-0.55;95.47;98466.15;108783;1297;22215;-82
2023/01/22 04:38:45;;;;;;;24.70;22.50;;;;;;;-0.56;95.29;98463.23;108764;1297;23002;-82
2023/01/22 04:41:13;;;;;;;24.30;22.10;;;;;;;-0.59;95.25;98458.85;108836;1297;22139;-81
2023/01/22 04:43:41;;;;;;;23.70;21.60;;;;;;;-0.58;95.55;98460.46;108736;1297;22295;-81
2023/01/22 04:46:09;;;;;;;24.10;22.00;;;;;;;-0.56;95.63;98457.94;108845;1297;22204;-81
2023/01/22 04:48:37;;;;;;;25.10;22.90;;;;;;;-0.58;95.63;98460.71;108791;1298;22260;-81
2023/01/22 04:51:05;;;;;;;25.20;22.80;;;;;;;-0.59;95.53;98463.70;108776;1297;22241;-82
2023/01/22 04:53:33;;;;;;;21.70;19.70;;;;;;;-0.60;95.52;98466.09;108637;1297;22178;-81
2023/01/22 04:56:01;;;;;;;23.90;21.80;;;;;;;-0.61;95.20;98470.58;108765;1297;23093;-81
2023/01/22 04:58:29;;;;;;;23.20;21.00;;;;;;;-0.57;95.47;98461.15;108803;1297;22270;-81
2023/01/22 05:00:59;;;;;;;23.30;21.10;;;;;;;-0.54;95.55;98465.49;108782;1295;22258;-81
2023/01/22 05:03:27;;;;;;;24.30;22.20;;;;;;;-0.55;95.41;98468.96;108843;1297;22151;-81
2023/01/22 05:05:55;;;;;;;24.00;21.90;;;;;;;-0.57;95.59;98475.88;108799;1297;22224;-81
2023/01/22 05:08:23;;;;;;;22.20;20.30;;;;;;;-0.56;95.86;98471.77;108835;1297;23410;-81
2023/01/22 05:10:51;;;;;;;21.40;19.40;;;;;;;-0.54;95.69;98471.33;108853;1297;22231;-82
2023/01/22 05:13:25;;;;;;;21.00;19.00;;;;;;;-0.50;95.43;98473.90;108800;1297;23568;-82
2023/01/22 05:15:53;;;;;;;24.10;22.00;;;;;;;-0.49;95.30;98472.67;108813;1286;22257;-81
2023/01/22 05:18:23;;;;;;;24.50;22.40;;;;;;;-0.48;95.43;98473.52;108787;1297;22279;-82
2023/01/22 05:20:52;;;;;;;24.00;21.80;;;;;;;-0.49;95.47;98473.73;108835;1297;22247;-82
2023/01/22 05:23:22;;;;;;;22.90;20.80;;;;;;;-0.52;95.50;98476.92;108778;1297;22149;-82
2023/01/22 05:25:50;;;;;;;27.00;24.60;;;;;;;-0.55;95.56;98472.66;108795;1297;22286;-82
2023/01/22 05:28:29;;;;;;;23.70;21.60;;;;;;;-0.56;95.53;98475.08;108801;1297;22229;-82
2023/01/22 05:31:17;;;;;;;22.20;20.20;;;;;;;-0.54;95.41;98475.17;108751;1297;22969;-80
2023/01/22 05:33:59;;;;;;;22.80;20.70;;;;;;;-0.52;95.25;98472.09;108845;1297;22298;-80
2023/01/22 05:36:29;;;;;;;20.80;18.90;;;;;;;-0.50;95.54;98473.90;108801;1297;22274;-80
2023/01/22 05:39:01;;;;;;;21.00;19.20;;;;;;;-0.51;95.44;98481.44;108827;1297;22237;-81
2023/01/22 05:41:29;;;;;;;22.30;20.30;;;;;;;-0.53;95.36;98486.91;108810;1298;22220;-81
2023/01/22 05:44:00;;;;;;;21.50;19.60;;;;;;;-0.56;95.37;98485.55;108814;1297;22159;-81
2023/01/22 05:46:29;;;;;;;21.10;19.20;;;;;;;-0.59;95.32;98486.59;108824;1297;22395;-80
2023/01/22 05:49:15;;;;;;;21.00;19.10;;;;;;;-0.56;95.23;98491.88;108842;1297;22265;-79
2023/01/22 05:51:44;;;;;;;20.70;18.90;;;;;;;-0.55;95.24;98503.95;108821;1297;22239;-78
2023/01/22 05:54:13;;;;;;;20.80;18.90;;;;;;;-0.57;95.30;98509.08;108706;1297;22239;-80
2023/01/22 05:56:43;;;;;;;23.00;21.00;;;;;;;-0.59;95.48;98524.37;108822;1297;22202;-80
2023/01/22 05:59:11;;;;;;;22.50;20.50;;;;;;;-0.60;95.57;98530.69;108809;1298;22798;-80
2023/01/22 06:01:40;;;;;;;24.60;22.50;;;;;;;-0.59;95.60;98534.80;108804;1297;23045;-81
2023/01/22 06:04:09;;;;;;;21.80;19.70;;;;;;;-0.56;95.43;98535.71;108793;1298;22210;-83
2023/01/22 06:06:37;;;;;;;24.30;22.00;;;;;;;-0.51;95.51;98533.29;108692;1297;22158;-82
2023/01/22 06:09:07;;;;;;;26.60;24.20;;;;;;;-0.47;95.44;98528.09;108804;1296;22247;-82
2023/01/22 06:11:36;;;;;;;25.20;22.90;;;;;;;-0.44;95.50;98532.55;108848;1296;22255;-81
2023/01/22 06:14:05;;;;;;;26.30;23.80;;;;;;;-0.44;95.57;98524.82;108808;1292;22332;-82
2023/01/22 06:16:33;;;;;;;24.40;22.10;;;;;;;-0.44;95.60;98517.98;108662;1295;22330;-83
2023/01/22 06:19:15;;;;;;;21.90;19.80;;;;;;;-0.46;95.49;98514.73;108908;1292;22268;-83
2023/01/22 06:21:52;;;;;;;20.70;18.80;;;;;;;-0.45;95.47;98520.17;108729;1292;23115;-81
2023/01/22 06:24:25;;;;;;;22.10;20.20;;;;;;;-0.42;95.37;98528.63;108723;1296;22307;-82
2023/01/22 06:26:53;;;;;;;21.60;19.60;;;;;;;-0.41;95.45;98520.16;108938;1292;22239;-83
2023/01/22 06:29:25;;;;;;;22.40;20.20;;;;;;;-0.47;95.44;98518.97;108797;1297;22236;-81
2023/01/22 06:31:55;;;;;;;22.00;20.10;;;;;;;-0.51;95.46;98527.98;108809;1290;23203;-82
2023/01/22 06:34:24;;;;;;;23.20;21.10;;;;;;;-0.54;95.66;98539.69;108808;1293;22268;-82
2023/01/22 06:36:53;;;;;;;21.40;19.40;;;;;;;-0.50;95.82;98537.32;108832;1295;22297;-83
2023/01/22 06:39:23;;;;;;;20.90;18.90;;;;;;;-0.46;95.54;98530.28;108608;1296;22247;-81
2023/01/22 06:42:00;;;;;;;20.10;18.20;;;;;;;-0.43;95.46;98527.17;108740;1295;22648;-81
2023/01/22 06:44:29;;;;;;;19.90;18.00;;;;;;;-0.43;95.42;98527.58;108684;1296;22275;-81
2023/01/22 06:46:57;;;;;;;22.70;20.50;;;;;;;-0.44;95.66;98527.75;108849;1295;22151;-81
2023/01/22 06:49:27;;;;;;;21.10;19.10;;;;;;;-0.46;95.81;98528.89;108805;1296;22123;-81
2023/01/22 06:51:55;;;;;;;22.00;20.10;;;;;;;-0.44;95.63;98528.00;108972;1296;23189;-81
2023/01/22 06:54:23;;;;;;;20.60;18.70;;;;;;;-0.42;95.59;98528.59;108822;1295;22184;-81
2023/01/22 06:56:51;;;;;;;18.70;16.80;;;;;;;-0.39;95.60;98532.81;108954;1292;22898;-81
2023/01/22 06:59:21;;;;;;;25.70;23.40;;;;;;;-0.37;95.80;98536.06;108727;1295;22963;-80
2023/01/22 07:01:49;;;;;;;21.90;20.00;;;;;;;-0.38;95.80;98529.43;108803;1296;22980;-80
2023/01/22 07:04:17;;;;;;;21.00;19.20;;;;;;;-0.40;95.63;98527.45;108954;1296;22265;-81
2023/01/22 07:06:45;;;;;;;20.00;18.20;;;;;;;-0.41;95.64;98526.55;108944;1296;22238;-80
2023/01/22 07:09:13;;;;;;;20.70;18.80;;;;;;;-0.40;95.60;98525.00;108949;1296;22357;-80
2023/01/22 07:11:42;;;;;;;22.60;20.40;;;;;;;-0.39;95.78;98523.23;108975;1296;22989;-81
2023/01/22 07:14:10;;;;;;;21.40;19.50;;;;;;;-0.38;95.79;98522.38;108970;1295;22175;-80
2023/01/22 07:16:38;;;;;;;20.60;18.80;;;;;;;-0.39;95.81;98530.65;108989;1280;22209;-80
2023/01/22 07:19:05;;;;;;;18.80;17.10;;;;;;;-0.40;95.95;98532.53;108951;1296;22253;-80
2023/01/22 07:21:33;;;;;;;17.40;15.80;;;;;;;-0.41;95.79;98528.14;108947;1296;22219;-81
2023/01/22 07:24:02;;;;;;;17.50;15.90;;;;;;;-0.40;95.76;98532.63;108768;1296;22987;-79
2023/01/22 07:26:30;;;;;;;17.90;16.30;;;;;;;-0.35;95.83;98546.20;108795;1296;22907;-79
2023/01/22 07:28:58;;;;;;;16.30;14.80;;;;;;;-0.30;95.77;98565.52;108940;1296;23135;-79
2023/01/22 07:31:26;;;;;;;26.50;24.20;;;;;;;-0.26;95.85;98577.77;108961;1296;22991;-79
2023/01/22 07:33:54;;;;;;;34.50;31.40;;;;;;;-0.25;96.02;98575.11;108973;1296;22854;-80
2023/01/22 07:36:22;;;;;;;34.50;31.30;;;;;;;-0.22;96.17;98567.20;108949;1296;22984;-81
2023/01/22 07:38:50;;;;;;;23.40;21.20;;;;;;;-0.18;96.09;98571.24;108932;1296;22220;-80
2023/01/22 07:41:18;;;;;;;19.70;17.90;;;;;;;-0.12;96.12;98573.36;108824;1296;22966;-81
2023/01/22 07:43:54;;;;;;;;;;;;;;;-0.05;96.02;98583.76;108955;1296;22435;-80
2023/01/22 07:46:23;;;;;;;27.80;25.30;;;;;;;-0.01;96.06;98577.46;108960;1295;22129;-80
2023/01/22 07:48:51;;;;;;;23.10;21.00;;;;;;;0.03;96.17;98571.32;108965;1296;23064;-80
2023/01/22 07:51:19;;;;;;;23.60;21.50;;;;;;;0.05;96.06;98569.34;108970;1295;22197;-81
2023/01/22 07:53:47;;;;;;;22.50;20.30;;;;;;;0.10;96.23;98574.45;108770;1296;22389;-81
2023/01/22 07:56:16;;;;;;;20.90;18.90;;;;;;;0.17;95.96;98577.86;108966;1295;22238;-80
2023/01/22 07:58:45;;;;;;;20.20;17.80;;;;;;;0.23;96.03;98582.67;108957;1296;22372;-80
2023/01/22 08:01:14;;;;;;;21.30;19.10;;;;;;;0.26;96.11;98585.54;108946;1295;22205;-81
2023/01/22 08:03:42;;;;;;;22.40;20.00;;;;;;;0.27;96.25;98581.88;108956;1296;23008;-81
2023/01/22 08:06:14;;;;;;;23.40;21.10;;;;;;;0.27;96.19;98587.46;108971;1296;22299;-80
2023/01/22 08:08:42;;;;;;;22.40;20.30;;;;;;;0.31;96.31;98584.12;108959;1296;22178;-81
2023/01/22 08:11:10;;;;;;;21.00;19.00;;;;;;;0.36;96.21;98585.19;108953;1295;22228;-81
2023/01/22 08:13:38;;;;;;;27.80;22.80;;;;;;;0.45;96.08;98590.79;108958;1291;22636;-80
2023/01/22 08:16:08;;;;;;;25.90;23.10;;;;;;;0.48;95.88;98596.27;108828;1296;22220;-80
2023/01/22 08:18:36;;;;;;;24.60;22.20;;;;;;;0.47;96.10;98592.36;108947;1296;22247;-80
2023/01/22 08:21:06;;;;;;;23.10;20.80;;;;;;;0.51;96.44;98590.39;108967;1296;22204;-81
2023/01/22 08:23:34;;;;;;;22.40;20.20;;;;;;;0.53;96.48;98585.78;108959;1289;22305;-80
2023/01/22 08:26:03;;;;;;;20.30;18.40;;;;;;;0.56;96.32;98593.27;108822;1290;22964;-81
2023/01/22 08:28:31;;;;;;;21.00;18.90;;;;;;;0.61;96.16;98595.39;108829;1297;22227;-80
2023/01/22 08:31:00;;;;;;;20.90;18.90;;;;;;;0.68;96.26;98592.96;108804;1297;22220;-81
2023/01/22 08:33:31;;;;;;;23.60;21.00;;;;;;;0.75;96.07;98595.55;108845;1279;22318;-80
2023/01/22 08:35:59;;;;;;;23.50;21.20;;;;;;;0.78;96.27;98596.66;108794;1297;23554;-80
2023/01/22 08:38:28;;;;;;;23.50;21.30;;;;;;;0.80;96.25;98592.94;108829;1297;22165;-82
2023/01/22 08:40:56;;;;;;;23.20;21.20;;;;;;;0.77;95.98;98593.75;108855;1297;22950;-82
2023/01/22 08:43:24;;;;;;;22.30;20.20;;;;;;;0.77;96.07;98592.42;108882;1297;22304;-83
2023/01/22 08:45:52;;;;;;;24.60;22.30;;;;;;;0.84;96.43;98590.90;108872;1297;22136;-85
2023/01/22 08:48:20;;;;;;;30.50;27.80;;;;;;;0.90;96.11;98591.13;108876;1297;22220;-85
2023/01/22 08:50:48;;;;;;;38.20;34.60;;;;;;;0.91;95.90;98591.15;108855;1296;22901;-86
2023/01/22 08:53:16;;;;;;;32.70;29.80;;;;;;;0.87;95.81;98594.16;108978;1296;22314;-86
2023/01/22 08:55:48;;;;;;;31.10;28.20;;;;;;;0.82;95.79;98593.85;108956;1296;22953;-85
2023/01/22 08:58:19;;;;;;;29.10;26.50;;;;;;;0.76;95.96;98593.78;108796;1296;23020;-85
2023/01/22 09:00:47;;;;;;;20.70;18.80;;;;;;;0.78;96.37;98593.73;109001;1296;22233;-87
2023/01/22 09:03:15;;;;;;;24.30;22.00;;;;;;;0.85;96.30;98589.91;109123;1296;22873;-84
2023/01/22 09:05:43;;;;;;;25.10;22.70;;;;;;;0.93;96.33;98593.06;108896;1296;22161;-84
2023/01/22 09:08:12;;;;;;;22.10;20.10;;;;;;;0.96;95.93;98595.92;108925;1296;22217;-85
2023/01/22 09:10:41;;;;;;;22.50;20.40;;;;;;;0.91;95.62;98595.20;108958;1296;22208;-85
2023/01/22 09:13:09;;;;;;;21.50;19.60;;;;;;;0.88;95.65;98597.34;108961;1296;23558;-81
2023/01/22 09:15:39;;;;;;;19.60;17.80;;;;;;;0.85;95.74;98595.67;108960;1296;23052;-81
2023/01/22 09:18:07;;;;;;;19.10;17.30;;;;;;;0.86;95.86;98595.00;108931;1296;22307;-82
2023/01/22 09:20:35;;;;;;;18.60;17.00;;;;;;;0.93;96.06;98593.96;108911;1289;22336;-81
2023/01/22 09:23:03;;;;;;;21.90;19.80;;;;;;;1.02;96.03;98597.88;108851;1296;23272;-82
2023/01/22 09:25:31;;;;;;;19.90;18.20;;;;;;;1.10;95.91;98597.79;108866;1297;22237;-81
2023/01/22 09:28:00;;;;;;;21.30;19.50;;;;;;;1.12;95.55;98607.08;108856;1297;22244;-81
2023/01/22 09:30:29;;;;;;;22.80;20.80;;;;;;;1.11;95.66;98603.98;108856;1297;22269;-81
2023/01/22 09:32:57;;;;;;;25.90;23.60;;;;;;;1.14;96.07;98607.15;108817;1297;22728;-81
2023/01/22 09:35:26;;;;;;;22.80;20.80;;;;;;;1.22;96.30;98603.14;108749;1297;22213;-78
2023/01/22 09:37:55;;;;;;;24.20;21.90;;;;;;;1.29;95.85;98605.02;108897;1297;22360;-80
2023/01/22 09:40:30;;;;;;;22.30;20.40;;;;;;;1.31;95.82;98605.61;108680;1297;22138;-81
2023/01/22 09:43:05;;;;;;;28.80;26.50;;;;;;;1.29;95.41;98606.70;108566;1297;22144;-79
2023/01/22 09:45:37;;;;;;;27.20;25.00;;;;;;;1.25;95.72;98607.64;108843;1297;22195;-80
2023/01/22 09:48:16;;;;;;;24.60;22.50;;;;;;;1.24;95.72;98605.11;108824;1297;22202;-81
2023/01/22 09:50:45;;;;;;;21.80;19.80;;;;;;;1.24;95.40;98599.93;108662;1297;22681;-81
2023/01/22 09:53:18;;;;;;;23.30;21.20;;;;;;;1.24;95.25;98597.65;108809;1297;22195;-83
2023/01/22 09:55:49;;;;;;;27.80;25.40;;;;;;;1.28;95.58;98599.84;108806;1297;22953;-82
2023/01/22 09:58:21;;;;;;;27.80;25.50;;;;;;;1.33;95.79;98591.94;108552;1297;22460;-82
2023/01/22 10:00:59;;;;;;;27.00;24.50;;;;;;;1.36;95.75;98590.20;108817;1297;22195;-81
2023/01/22 10:03:35;;;;;;;22.20;20.30;;;;;;;1.32;95.00;98592.20;108556;1297;22911;-80
2023/01/22 10:06:09;;;;;;;29.70;27.20;;;;;;;1.32;95.57;98594.04;108854;1288;22263;-84
2023/01/22 10:08:46;;;;;;;20.60;18.30;;;;;;;1.42;95.78;98588.41;108823;1297;22156;-82
2023/01/22 10:11:15;;;;;;;23.50;21.30;;;;;;;1.53;95.89;98591.75;108799;1297;22994;-83
2023/01/22 10:13:43;;;;;;;24.80;22.70;;;;;;;1.61;95.72;98584.05;108791;1297;22999;-82
2023/01/22 10:16:11;;;;;;;23.50;21.40;;;;;;;1.66;95.68;98581.08;108790;1297;22271;-83
2023/01/22 10:19:00;;;;;;;24.50;22.20;;;;;;;1.70;95.67;98584.84;108789;1297;22226;-82
2023/01/22 10:21:28;;;;;;;33.10;30.20;;;;;;;1.77;95.91;98595.85;108792;1297;23002;-83
2023/01/22 10:23:57;;;;;;;25.60;23.20;;;;;;;1.86;95.87;98599.55;108646;1297;22151;-82
2023/01/22 10:26:36;;;;;;;24.40;22.20;;;;;;;1.97;95.83;98602.39;108837;1295;23064;-84
2023/01/22 10:29:07;;;;;;;27.90;25.40;;;;;;;2.13;96.18;98611.43;108858;1297;22294;-86
2023/01/22 10:31:44;;;;;;;25.50;23.30;;;;;;;2.22;95.59;98613.69;108666;1297;22209;-85
2023/01/22 10:34:16;;;;;;;23.80;21.80;;;;;;;2.22;95.24;98612.25;108851;1297;22943;-86
2023/01/22 10:36:52;;;;;;;24.00;21.70;;;;;;;2.14;95.10;98606.96;108848;1297;22281;-82
2023/01/22 10:39:20;;;;;;;21.80;19.90;;;;;;;2.02;95.08;98605.78;108834;1297;22248;-82
2023/01/22 10:41:48;;;;;;;22.80;20.80;;;;;;;1.93;94.71;98604.61;108774;1295;23076;-82
2023/01/22 10:44:20;;;;;;;19.30;17.60;;;;;;;1.87;95.15;98604.52;108795;1276;23228;-82
2023/01/22 10:46:50;;;;;;;22.50;20.60;;;;;;;1.84;94.77;98604.60;108502;1297;22317;-85
2023/01/22 10:49:23;;;;;;;22.60;20.70;;;;;;;1.83;95.00;98604.95;108671;1297;22237;-81
2023/01/22 10:51:56;;;;;;;22.90;20.90;;;;;;;1.85;95.02;98603.12;108857;1289;22071;-83
2023/01/22 10:54:34;;;;;;;19.80;18.30;;;;;;;1.78;94.71;98600.23;108572;1295;22291;-83
2023/01/22 10:57:19;;;;;;;20.50;18.70;;;;;;;1.68;94.47;98597.41;108993;1296;22227;-87
2023/01/22 10:59:53;;;;;;;;;;;;;;;1.58;94.23;98605.20;108981;1296;22439;-85
2023/01/22 11:02:24;;;;;;;21.40;19.60;;;;;;;1.51;94.61;98605.88;108953;1289;22257;-85
2023/01/22 11:04:53;;;;;;;26.10;23.80;;;;;;;1.55;94.88;98606.45;108917;1296;22786;-85
2023/01/22 11:07:32;;;;;;;22.70;20.70;;;;;;;1.58;95.14;98606.39;108807;1297;22757;-86
2023/01/22 11:10:18;;;;;;;21.80;20.00;;;;;;;1.53;94.80;98600.73;108797;1297;22252;-84
2023/01/22 11:13:04;;;;;;;22.70;20.70;;;;;;;1.55;95.00;98606.56;108675;1297;22205;-84
2023/01/22 11:15:43;;;;;;;19.00;17.20;;;;;;;1.53;94.91;98601.73;108802;1297;23035;-82
2023/01/22 11:18:30;;;;;;;17.50;16.00;;;;;;;1.51;94.62;98604.25;108683;1297;22275;-82
2023/01/22 11:21:00;;;;;;;18.00;16.50;;;;;;;1.53;94.72;98599.19;108790;1292;22978;-83
2023/01/22 11:23:46;;;;;;;17.60;16.10;;;;;;;1.52;94.55;98602.55;108594;1297;22239;-83
2023/01/22 11:26:36;;;;;;;19.90;18.20;;;;;;;1.48;94.77;98599.98;108585;1297;22200;-83
2023/01/22 11:29:13;;;;;;;21.30;19.60;;;;;;;1.46;94.71;98603.85;108796;1296;22255;-84
2023/01/22 11:31:52;;;;;;;19.90;18.20;;;;;;;1.45;94.98;98603.25;108890;1296;23010;-83
2023/01/22 11:34:39;;;;;;;18.40;16.80;;;;;;;1.47;94.85;98599.26;108748;1285;152210;-82
2023/01/22 11:37:17;;;;;;;18.80;17.20;;;;;;;1.46;94.74;98599.56;108928;1296;22264;-86